Time;durP1;ratioP1;P1;durP2;ratioP2;P2;SDS_P1;SDS_P2;PMS_P1;PMS_P2;Temp;Humidity;BMP_temperature;BMP_pressure;BME280_temperature;BME280_humidity;BME280_pressure;Samples;Min_cycle;Max_cycle;Signal;HPM_P1;HPM_P2
2023/08/04 00:01:43;;;;;;;14.23;4.30;;;;;;;;;;5075515;28;20169;-82
2023/08/04 00:04:08;;;;;;;3.00;1.40;;;;;;;;;;5074286;28;20511;-82
2023/08/04 00:06:34;;;;;;;10.37;3.23;;;;;;;;;;5075099;28;20167;-80
2023/08/04 00:09:00;;;;;;;8.53;2.30;;;;;;;;;;5075527;28;20171;-81
2023/08/04 00:11:26;;;;;;;6.33;2.67;;;;;;;;;;5075305;28;20203;-82
2023/08/04 00:13:52;;;;;;;6.47;2.63;;;;;;;;;;5075319;28;20521;-81
2023/08/04 00:16:18;;;;;;;9.20;2.70;;;;;;;;;;5075249;28;20183;-82
2023/08/04 00:18:44;;;;;;;5.33;2.03;;;;;;;;;;5075271;28;20181;-82
2023/08/04 00:21:10;;;;;;;7.10;1.73;;;;;;;;;;5074878;28;20659;-81
2023/08/04 00:23:36;;;;;;;10.37;3.57;;;;;;;;;;5075178;28;20456;-81
2023/08/04 00:26:02;;;;;;;9.17;1.93;;;;;;;;;;5075185;28;20414;-81
2023/08/04 00:28:28;;;;;;;6.73;3.10;;;;;;;;;;5075110;28;20627;-82
2023/08/04 00:30:54;;;;;;;3.57;1.80;;;;;;;;;;5074924;28;20980;-81
2023/08/04 00:33:20;;;;;;;7.80;2.57;;;;;;;;;;5075008;28;20463;-81
2023/08/04 00:35:46;;;;;;;9.53;1.87;;;;;;;;;;5074196;28;20701;-81
2023/08/04 00:38:12;;;;;;;5.23;1.80;;;;;;;;;;5074004;28;20412;-81
2023/08/04 00:40:38;;;;;;;7.90;3.23;;;;;;;;;;5074815;28;20192;-81
2023/08/04 00:43:04;;;;;;;4.27;1.90;;;;;;;;;;5074597;28;20518;-80
2023/08/04 00:45:31;;;;;;;5.53;2.47;;;;;;;;;;5074742;28;20420;-81
2023/08/04 00:47:57;;;;;;;7.13;2.03;;;;;;;;;;5074605;28;20237;-81
2023/08/04 00:50:23;;;;;;;5.10;1.63;;;;;;;;;;5074573;28;20412;-81
2023/08/04 00:52:49;;;;;;;7.67;1.93;;;;;;;;;;5074399;28;20519;-81
2023/08/04 00:55:16;;;;;;;6.80;1.63;;;;;;;;;;5074499;28;20417;-81
2023/08/04 00:57:42;;;;;;;4.20;1.67;;;;;;;;;;5073204;28;20430;-82
2023/08/04 01:00:08;;;;;;;4.63;2.00;;;;;;;;;;5074457;28;20497;-81
2023/08/04 01:02:34;;;;;;;6.67;1.33;;;;;;;;;;5074418;28;20474;-81
2023/08/04 01:05:01;;;;;;;4.20;1.67;;;;;;;;;;5090994;28;20514;-80
2023/08/04 01:07:28;;;;;;;7.40;2.13;;;;;;;;;;5092893;28;20447;-81
2023/08/04 01:10:03;;;;;;;7.03;2.57;;;;;;;;;;5093318;28;20495;-81
2023/08/04 01:12:37;;;;;;;7.57;2.27;;;;;;;;;;5094393;28;20470;-81
2023/08/04 01:15:04;;;;;;;7.13;2.33;;;;;;;;;;5094464;28;20488;-80
2023/08/04 01:17:31;;;;;;;3.40;1.73;;;;;;;;;;5094311;28;20408;-81
2023/08/04 01:19:58;;;;;;;5.17;3.47;;;;;;;;;;5094307;28;20408;-82
2023/08/04 01:22:25;;;;;;;6.37;2.30;;;;;;;;;;5093958;28;20504;-80
2023/08/04 01:24:51;;;;;;;5.10;2.07;;;;;;;;;;5094239;28;20409;-80
2023/08/04 01:27:19;;;;;;;8.90;2.37;;;;;;;;;;5094255;28;20503;-80
2023/08/04 01:29:45;;;;;;;4.83;1.60;;;;;;;;;;5094085;28;21002;-81
2023/08/04 01:32:12;;;;;;;4.97;1.70;;;;;;;;;;5094098;28;20477;-81
2023/08/04 01:34:41;;;;;;;8.47;2.90;;;;;;;;;;5094065;28;20414;-82
2023/08/04 01:37:07;;;;;;;8.20;1.57;;;;;;;;;;5093641;28;20428;-80
2023/08/04 01:39:33;;;;;;;7.43;2.17;;;;;;;;;;5093951;28;20948;-81
2023/08/04 01:41:58;;;;;;;4.47;2.43;;;;;;;;;;5093941;28;20178;-81
2023/08/04 01:44:24;;;;;;;8.10;2.30;;;;;;;;;;5093773;28;20624;-80
2023/08/04 01:46:50;;;;;;;4.43;1.73;;;;;;;;;;5093894;28;20404;-81
2023/08/04 01:49:16;;;;;;;7.73;2.50;;;;;;;;;;5093591;28;20402;-80
2023/08/04 01:51:42;;;;;;;7.30;2.53;;;;;;;;;;5093288;28;20241;-81
2023/08/04 01:54:08;;;;;;;5.40;2.37;;;;;;;;;;5093613;28;20650;-81
2023/08/04 01:56:34;;;;;;;6.13;2.17;;;;;;;;;;5093654;28;20250;-81
2023/08/04 01:59:00;;;;;;;6.50;1.93;;;;;;;;;;5093650;28;20172;-81
2023/08/04 02:01:26;;;;;;;6.20;1.90;;;;;;;;;;5093529;28;20661;-80
2023/08/04 02:03:52;;;;;;;10.07;2.13;;;;;;;;;;5093638;28;20800;-80
2023/08/04 02:06:17;;;;;;;7.87;2.20;;;;;;;;;;5093166;28;20416;-80
2023/08/04 02:08:43;;;;;;;7.90;2.30;;;;;;;;;;5093465;28;20620;-79
2023/08/04 02:11:09;;;;;;;4.93;2.10;;;;;;;;;;5093379;28;20208;-81
2023/08/04 02:13:35;;;;;;;6.57;2.50;;;;;;;;;;5093402;28;20188;-81
2023/08/04 02:16:01;;;;;;;8.10;2.27;;;;;;;;;;5093424;28;20227;-80
2023/08/04 02:18:27;;;;;;;5.10;2.10;;;;;;;;;;5093323;28;20878;-81
2023/08/04 02:20:53;;;;;;;11.67;2.47;;;;;;;;;;5093013;28;20253;-81
2023/08/04 02:23:19;;;;;;;5.43;1.57;;;;;;;;;;5093251;28;20574;-80
2023/08/04 02:25:45;;;;;;;5.90;2.47;;;;;;;;;;5093193;28;20223;-81
2023/08/04 02:28:11;;;;;;;8.53;2.10;;;;;;;;;;5093197;28;20408;-81
2023/08/04 02:30:37;;;;;;;10.53;2.40;;;;;;;;;;5091905;28;20652;-80
2023/08/04 02:33:02;;;;;;;9.03;2.40;;;;;;;;;;5089762;28;20182;-81
2023/08/04 02:35:28;;;;;;;4.80;2.27;;;;;;;;;;5092738;28;20170;-81
2023/08/04 02:37:54;;;;;;;5.37;2.00;;;;;;;;;;5092520;28;20639;-81
2023/08/04 02:40:20;;;;;;;10.70;2.53;;;;;;;;;;5093002;28;20437;-82
2023/08/04 02:42:46;;;;;;;4.87;2.37;;;;;;;;;;5092326;28;20305;-81
2023/08/04 02:45:12;;;;;;;5.13;2.40;;;;;;;;;;5090599;28;20529;-80
2023/08/04 02:47:38;;;;;;;6.87;2.90;;;;;;;;;;5092802;28;20228;-80
2023/08/04 02:50:08;;;;;;;5.60;2.73;;;;;;;;;;5092874;28;20239;-80
2023/08/04 02:52:34;;;;;;;6.33;2.37;;;;;;;;;;5092970;28;20470;-80
2023/08/04 02:55:00;;;;;;;6.20;2.30;;;;;;;;;;5092973;28;20433;-81
2023/08/04 02:57:30;;;;;;;7.83;2.27;;;;;;;;;;5092944;28;20889;-80
2023/08/04 02:59:56;;;;;;;7.77;2.37;;;;;;;;;;5093822;28;20473;-80
2023/08/04 03:02:22;;;;;;;8.20;2.27;;;;;;;;;;5097086;28;20936;-80
2023/08/04 03:04:48;;;;;;;8.57;2.60;;;;;;;;;;5097012;28;20751;-79
2023/08/04 03:07:14;;;;;;;5.83;2.70;;;;;;;;;;5085904;28;20171;-79
2023/08/04 03:09:40;;;;;;;9.50;2.60;;;;;;;;;;5086968;28;20180;-80
2023/08/04 03:12:06;;;;;;;8.27;3.97;;;;;;;;;;5086699;28;20252;-81
2023/08/04 03:14:32;;;;;;;6.50;2.87;;;;;;;;;;5096036;28;20424;-80
2023/08/04 03:16:58;;;;;;;5.37;2.13;;;;;;;;;;5093935;28;20419;-79
2023/08/04 03:19:24;;;;;;;4.90;2.30;;;;;;;;;;5096102;28;20206;-81
2023/08/04 03:21:50;;;;;;;8.73;3.30;;;;;;;;;;5096339;28;20179;-80
2023/08/04 03:24:15;;;;;;;7.13;3.20;;;;;;;;;;5095420;28;20174;-79
2023/08/04 03:26:41;;;;;;;5.60;2.70;;;;;;;;;;5096660;28;20233;-81
2023/08/04 03:29:07;;;;;;;4.87;2.43;;;;;;;;;;5096624;28;20176;-80
2023/08/04 03:31:33;;;;;;;7.97;2.67;;;;;;;;;;5096457;28;20207;-80
2023/08/04 03:33:59;;;;;;;6.20;2.70;;;;;;;;;;5096438;28;20415;-80
2023/08/04 03:36:25;;;;;;;10.37;2.33;;;;;;;;;;5096081;28;20454;-80
2023/08/04 03:38:51;;;;;;;6.17;2.27;;;;;;;;;;5095084;28;20984;-80
2023/08/04 03:41:17;;;;;;;9.73;2.87;;;;;;;;;;5096358;28;20461;-80
2023/08/04 03:43:43;;;;;;;8.20;2.80;;;;;;;;;;5096136;28;20268;-80
2023/08/04 03:46:08;;;;;;;4.10;2.77;;;;;;;;;;5094958;28;20655;-79
2023/08/04 03:48:34;;;;;;;7.10;2.47;;;;;;;;;;5096211;28;20179;-80
2023/08/04 03:51:00;;;;;;;10.40;5.17;;;;;;;;;;5095667;28;20201;-80
2023/08/04 03:53:26;;;;;;;6.97;2.20;;;;;;;;;;5096114;28;20411;-82
2023/08/04 03:55:52;;;;;;;9.20;3.60;;;;;;;;;;5096105;28;20586;-81
2023/08/04 03:58:18;;;;;;;6.07;2.80;;;;;;;;;;5095992;28;20939;-81
2023/08/04 04:00:44;;;;;;;6.07;2.57;;;;;;;;;;5094703;28;20180;-81
2023/08/04 04:03:10;;;;;;;5.10;2.23;;;;;;;;;;5095927;28;20176;-81
2023/08/04 04:05:36;;;;;;;5.73;2.70;;;;;;;;;;5095438;28;20906;-81
2023/08/04 04:08:02;;;;;;;10.00;2.50;;;;;;;;;;5095917;28;20177;-80
2023/08/04 04:10:28;;;;;;;8.67;3.10;;;;;;;;;;5095656;28;20412;-81
2023/08/04 04:12:53;;;;;;;7.07;2.63;;;;;;;;;;5095652;28;20948;-80
2023/08/04 04:15:19;;;;;;;4.33;1.93;;;;;;;;;;5095698;28;20178;-80
2023/08/04 04:17:45;;;;;;;10.20;3.40;;;;;;;;;;5095726;28;20512;-81
2023/08/04 04:20:11;;;;;;;7.77;4.47;;;;;;;;;;5095166;28;20171;-81
2023/08/04 04:22:37;;;;;;;5.67;2.67;;;;;;;;;;5095476;28;20171;-81
2023/08/04 04:25:03;;;;;;;8.80;3.40;;;;;;;;;;5095500;28;20897;-82
2023/08/04 04:27:29;;;;;;;7.73;3.33;;;;;;;;;;5095497;28;20228;-82
2023/08/04 04:29:55;;;;;;;8.43;2.33;;;;;;;;;;5095338;28;20408;-81
2023/08/04 04:32:21;;;;;;;4.83;1.93;;;;;;;;;;5093944;28;20482;-81
2023/08/04 04:34:47;;;;;;;7.63;2.73;;;;;;;;;;5094917;28;20499;-81
2023/08/04 04:37:13;;;;;;;6.77;2.90;;;;;;;;;;5095271;28;20171;-82
2023/08/04 04:39:39;;;;;;;5.87;2.17;;;;;;;;;;5095183;28;20400;-80
2023/08/04 04:42:05;;;;;;;11.70;2.60;;;;;;;;;;5095047;28;20797;-82
2023/08/04 04:44:31;;;;;;;7.47;2.33;;;;;;;;;;5094974;28;20259;-82
2023/08/04 04:46:57;;;;;;;6.80;1.60;;;;;;;;;;5095028;28;20415;-81
2023/08/04 04:49:23;;;;;;;7.90;2.43;;;;;;;;;;5094965;28;20541;-80
2023/08/04 04:51:49;;;;;;;7.40;1.70;;;;;;;;;;5094484;28;20470;-82
2023/08/04 04:54:15;;;;;;;8.00;2.10;;;;;;;;;;5094865;28;20786;-82
2023/08/04 04:56:41;;;;;;;7.13;2.67;;;;;;;;;;5094901;28;20224;-82
2023/08/04 04:59:07;;;;;;;8.70;2.83;;;;;;;;;;5094868;28;20179;-82
2023/08/04 05:01:33;;;;;;;10.43;3.23;;;;;;;;;;5094789;28;20418;-82
2023/08/04 05:03:59;;;;;;;6.63;2.17;;;;;;;;;;5094815;28;20461;-82
2023/08/04 05:06:24;;;;;;;6.00;2.37;;;;;;;;;;5094331;28;20421;-81
2023/08/04 05:08:50;;;;;;;7.17;2.50;;;;;;;;;;5094654;28;20407;-80
2023/08/04 05:11:16;;;;;;;7.80;2.73;;;;;;;;;;5094527;28;20197;-82
2023/08/04 05:13:42;;;;;;;5.93;1.87;;;;;;;;;;5094577;28;20208;-82
2023/08/04 05:16:08;;;;;;;5.97;1.93;;;;;;;;;;5094518;28;20172;-81
2023/08/04 05:18:34;;;;;;;7.40;2.10;;;;;;;;;;5094387;28;20419;-82
2023/08/04 05:21:00;;;;;;;6.63;1.60;;;;;;;;;;5094080;28;20418;-81
2023/08/04 05:23:26;;;;;;;6.33;2.77;;;;;;;;;;5093840;28;20197;-80
2023/08/04 05:25:52;;;;;;;4.40;1.30;;;;;;;;;;5094195;28;20174;-81
2023/08/04 05:28:20;;;;;;;8.43;2.30;;;;;;;;;;5094193;28;20418;-81
2023/08/04 05:30:46;;;;;;;5.60;1.67;;;;;;;;;;5094037;28;20172;-81
2023/08/04 05:33:12;;;;;;;3.30;2.00;;;;;;;;;;5092866;28;20432;-81
2023/08/04 05:35:38;;;;;;;5.43;2.20;;;;;;;;;;5093748;28;20511;-81
2023/08/04 05:38:05;;;;;;;7.00;2.20;;;;;;;;;;5094031;28;20179;-82
2023/08/04 05:40:33;;;;;;;7.87;1.90;;;;;;;;;;5093972;28;20413;-82
2023/08/04 05:42:59;;;;;;;4.00;1.73;;;;;;;;;;5094748;28;20476;-81
2023/08/04 05:45:25;;;;;;;6.40;1.40;;;;;;;;;;5093924;28;20819;-81
2023/08/04 05:47:51;;;;;;;6.80;1.50;;;;;;;;;;5092673;28;20466;-81
2023/08/04 05:50:16;;;;;;;4.10;1.53;;;;;;;;;;5093457;28;20411;-81
2023/08/04 05:52:42;;;;;;;8.27;1.80;;;;;;;;;;5093769;28;20474;-81
2023/08/04 05:55:08;;;;;;;5.47;2.20;;;;;;;;;;5093783;28;20194;-81
2023/08/04 05:57:34;;;;;;;5.57;1.83;;;;;;;;;;5093793;28;20180;-81
2023/08/04 06:00:00;;;;;;;7.40;1.80;;;;;;;;;;5093700;28;20765;-79
2023/08/04 06:02:26;;;;;;;9.00;2.00;;;;;;;;;;5092350;28;20781;-82
2023/08/04 06:04:52;;;;;;;9.00;2.70;;;;;;;;;;5093256;28;20202;-81
2023/08/04 06:07:18;;;;;;;4.40;1.80;;;;;;;;;;5093540;28;20259;-81
2023/08/04 06:09:44;;;;;;;4.47;0.97;;;;;;;;;;5093500;28;20491;-82
2023/08/04 06:12:10;;;;;;;3.00;1.10;;;;;;;;;;5093355;28;20602;-82
2023/08/04 06:14:36;;;;;;;3.20;1.10;;;;;;;;;;5093487;28;20172;-80
2023/08/04 06:17:02;;;;;;;4.27;2.60;;;;;;;;;;5093318;28;20472;-81
2023/08/04 06:19:28;;;;;;;3.53;1.13;;;;;;;;;;5093275;28;20173;-80
2023/08/04 06:21:54;;;;;;;6.33;1.50;;;;;;;;;;5093229;28;20813;-81
2023/08/04 06:24:26;;;;;;;4.37;0.80;;;;;;;;;;5093347;28;20195;-81
2023/08/04 06:26:51;;;;;;;6.57;1.23;;;;;;;;;;5093234;28;20636;-81
2023/08/04 06:29:17;;;;;;;5.57;1.30;;;;;;;;;;5093219;28;20413;-81
2023/08/04 06:31:44;;;;;;;6.40;3.27;;;;;;;;;;5093067;28;20231;-82
2023/08/04 06:34:12;;;;;;;2.63;1.00;;;;;;;;;;5092564;28;20222;-79
2023/08/04 06:36:38;;;;;;;2.23;0.83;;;;;;;;;;5092436;28;20406;-81
2023/08/04 06:39:04;;;;;;;3.00;1.53;;;;;;;;;;5093176;28;20809;-83
2023/08/04 06:41:30;;;;;;;4.33;0.93;;;;;;;;;;5093047;28;20417;-81
2023/08/04 06:43:56;;;;;;;3.87;1.00;;;;;;;;;;5092897;28;20469;-81
2023/08/04 06:46:22;;;;;;;1.87;0.70;;;;;;;;;;5093103;28;20760;-81
2023/08/04 06:48:48;;;;;;;9.50;1.60;;;;;;;;;;5093033;28;20178;-81
2023/08/04 06:51:14;;;;;;;3.57;1.13;;;;;;;;;;5092581;28;20204;-82
2023/08/04 06:53:40;;;;;;;5.63;0.87;;;;;;;;;;5092974;28;20176;-81
2023/08/04 06:56:05;;;;;;;4.87;1.30;;;;;;;;;;5092856;28;20402;-82
2023/08/04 06:58:31;;;;;;;3.00;0.87;;;;;;;;;;5092986;28;20175;-82
2023/08/04 07:00:57;;;;;;;4.00;0.97;;;;;;;;;;5092957;28;20168;-81
2023/08/04 07:03:23;;;;;;;1.93;1.10;;;;;;;;;;5092952;28;20176;-81
2023/08/04 07:05:49;;;;;;;5.43;1.00;;;;;;;;;;5092593;28;20689;-82
2023/08/04 07:08:15;;;;;;;4.20;1.50;;;;;;;;;;5092901;28;20173;-81
2023/08/04 07:10:41;;;;;;;5.73;1.00;;;;;;;;;;5092811;28;20411;-82
2023/08/04 07:13:07;;;;;;;3.30;1.27;;;;;;;;;;5091456;28;20666;-81
2023/08/04 07:15:33;;;;;;;3.23;1.07;;;;;;;;;;5092745;28;20257;-80
2023/08/04 07:17:58;;;;;;;3.93;1.20;;;;;;;;;;5092831;28;20180;-81
2023/08/04 07:20:25;;;;;;;5.30;1.30;;;;;;;;;;5092493;28;20691;-81
2023/08/04 07:22:51;;;;;;;3.40;1.10;;;;;;;;;;5092722;28;20215;-83
2023/08/04 07:25:17;;;;;;;2.63;0.90;;;;;;;;;;5092658;28;20413;-82
2023/08/04 07:27:43;;;;;;;5.10;1.63;;;;;;;;;;5092687;28;20170;-81
2023/08/04 07:30:09;;;;;;;2.67;0.70;;;;;;;;;;5092690;28;20180;-82
2023/08/04 07:32:35;;;;;;;5.17;1.50;;;;;;;;;;5092580;28;20496;-82
2023/08/04 07:35:01;;;;;;;3.50;1.20;;;;;;;;;;5092269;28;20409;-82
2023/08/04 07:37:27;;;;;;;4.20;1.27;;;;;;;;;;5092590;28;20551;-82
2023/08/04 07:39:52;;;;;;;4.43;0.87;;;;;;;;;;5092528;28;20171;-83
2023/08/04 07:42:18;;;;;;;4.10;1.00;;;;;;;;;;5092208;28;20571;-80
2023/08/04 07:44:44;;;;;;;4.57;1.10;;;;;;;;;;5092537;28;20281;-81
2023/08/04 07:47:10;;;;;;;2.70;1.00;;;;;;;;;;5095127;28;20410;-81
2023/08/04 07:49:36;;;;;;;6.00;1.10;;;;;;;;;;5095837;28;20172;-82
2023/08/04 07:52:02;;;;;;;3.50;0.63;;;;;;;;;;5096005;28;20207;-81
2023/08/04 07:54:28;;;;;;;2.30;0.93;;;;;;;;;;5096036;28;20210;-82
2023/08/04 07:56:54;;;;;;;7.77;1.50;;;;;;;;;;5096113;28;20416;-81
2023/08/04 07:59:20;;;;;;;1.90;0.90;;;;;;;;;;5096018;28;20427;-82
2023/08/04 08:01:46;;;;;;;2.53;0.70;;;;;;;;;;5095925;28;20439;-81
2023/08/04 08:04:12;;;;;;;2.40;0.73;;;;;;;;;;5095556;28;20171;-81
2023/08/04 08:06:38;;;;;;;3.60;1.20;;;;;;;;;;5095910;28;20193;-82
2023/08/04 08:09:04;;;;;;;3.47;0.60;;;;;;;;;;5095821;28;20418;-81
2023/08/04 08:11:30;;;;;;;5.67;1.27;;;;;;;;;;5095677;28;20525;-80
2023/08/04 08:13:56;;;;;;;4.47;0.73;;;;;;;;;;5095610;28;20952;-81
2023/08/04 08:16:22;;;;;;;3.37;0.60;;;;;;;;;;5095699;28;20175;-81
2023/08/04 08:18:48;;;;;;;3.50;0.57;;;;;;;;;;5095642;28;20169;-78
2023/08/04 08:21:14;;;;;;;2.10;0.50;;;;;;;;;;5094005;28;20192;-78
2023/08/04 08:23:40;;;;;;;3.30;0.87;;;;;;;;;;5095490;28;20198;-80
2023/08/04 08:26:06;;;;;;;2.50;0.60;;;;;;;;;;5095507;28;20410;-79
2023/08/04 08:28:32;;;;;;;4.87;0.70;;;;;;;;;;5095444;28;20421;-79
2023/08/04 08:30:58;;;;;;;1.80;0.57;;;;;;;;;;5095337;28;20255;-79
2023/08/04 08:33:24;;;;;;;1.63;0.47;;;;;;;;;;5095374;28;20825;-79
2023/08/04 08:35:49;;;;;;;1.50;0.20;;;;;;;;;;5093677;28;20263;-79
2023/08/04 08:38:15;;;;;;;6.20;0.30;;;;;;;;;;5095239;28;20255;-80
2023/08/04 08:40:41;;;;;;;4.10;0.43;;;;;;;;;;5095239;28;20421;-79
2023/08/04 08:43:07;;;;;;;2.80;2.57;;;;;;;;;;5095019;28;20245;-79
2023/08/04 08:45:34;;;;;;;2.07;0.50;;;;;;;;;;5095122;28;20176;-80
2023/08/04 08:48:00;;;;;;;2.10;0.40;;;;;;;;;;5095152;28;20176;-80
2023/08/04 08:50:27;;;;;;;3.30;0.30;;;;;;;;;;5094794;28;20947;-80
2023/08/04 08:53:13;;;;;;;4.03;0.63;;;;;;;;;;5094870;28;20879;-79
2023/08/04 08:55:43;;;;;;;2.20;0.43;;;;;;;;;;5091139;28;20448;-79
2023/08/04 08:58:09;;;;;;;3.80;1.20;;;;;;;;;;5093923;28;20417;-80
2023/08/04 09:00:35;;;;;;;2.83;0.30;;;;;;;;;;5094798;28;20408;-80
2023/08/04 09:03:03;;;;;;;1.43;0.43;;;;;;;;;;5094799;28;20498;-79
2023/08/04 09:05:31;;;;;;;3.13;0.63;;;;;;;;;;5094422;28;20435;-80
2023/08/04 09:07:56;;;;;;;2.60;0.93;;;;;;;;;;5094701;28;20456;-79
2023/08/04 09:10:22;;;;;;;3.50;0.60;;;;;;;;;;5094700;28;20446;-79
2023/08/04 09:12:49;;;;;;;2.43;0.40;;;;;;;;;;5094489;28;20471;-81
2023/08/04 09:15:15;;;;;;;1.00;0.20;;;;;;;;;;5094539;28;20745;-81
2023/08/04 09:17:42;;;;;;;2.50;0.60;;;;;;;;;;5094536;28;20445;-82
2023/08/04 09:20:08;;;;;;;4.27;0.77;;;;;;;;;;5094132;28;20402;-83
2023/08/04 09:22:38;;;;;;;3.50;0.67;;;;;;;;;;5093226;28;20422;-82
2023/08/04 09:25:05;;;;;;;0.93;0.40;;;;;;;;;;5094344;28;20414;-82
2023/08/04 09:27:38;;;;;;;2.10;0.40;;;;;;;;;;5094308;28;20773;-82
2023/08/04 09:30:05;;;;;;;2.60;0.50;;;;;;;;;;5094284;28;20406;-82
2023/08/04 09:32:32;;;;;;;3.13;0.40;;;;;;;;;;5094197;28;20569;-81
2023/08/04 09:35:02;;;;;;;1.90;0.70;;;;;;;;;;5093796;28;20792;-81
2023/08/04 09:37:31;;;;;;;2.53;0.57;;;;;;;;;;5094185;28;20409;-81
2023/08/04 09:39:57;;;;;;;3.07;0.40;;;;;;;;;;5094039;28;20406;-81
2023/08/04 09:42:23;;;;;;;2.00;0.60;;;;;;;;;;5092598;28;20437;-81
2023/08/04 09:44:52;;;;;;;2.20;0.33;;;;;;;;;;5094054;28;20415;-81
2023/08/04 09:47:25;;;;;;;2.87;0.30;;;;;;;;;;5093923;28;20406;-80
2023/08/04 09:49:52;;;;;;;1.27;0.50;;;;;;;;;;5093593;28;20398;-80
2023/08/04 09:52:21;;;;;;;1.60;0.20;;;;;;;;;;5093880;28;20476;-80
2023/08/04 09:54:47;;;;;;;2.00;0.20;;;;;;;;;;5093757;28;20767;-80
2023/08/04 09:57:14;;;;;;;0.50;0.20;;;;;;;;;;5093799;28;20444;-80
2023/08/04 09:59:40;;;;;;;1.33;0.20;;;;;;;;;;5093760;28;20407;-80
2023/08/04 10:02:07;;;;;;;2.00;0.30;;;;;;;;;;5093716;28;20763;-80
2023/08/04 10:04:33;;;;;;;0.80;0.30;;;;;;;;;;5093290;28;20512;-80
2023/08/04 10:07:00;;;;;;;1.00;0.40;;;;;;;;;;5093584;28;20777;-80
2023/08/04 10:09:27;;;;;;;0.83;0.20;;;;;;;;;;5093421;28;20431;-80
2023/08/04 10:11:53;;;;;;;1.80;0.20;;;;;;;;;;5093372;28;20568;-80
2023/08/04 10:14:19;;;;;;;2.87;0.30;;;;;;;;;;5093489;28;20402;-80
2023/08/04 10:16:46;;;;;;;1.60;0.20;;;;;;;;;;5092243;28;20421;-80
2023/08/04 10:19:13;;;;;;;2.87;0.20;;;;;;;;;;5093114;28;20207;-80
2023/08/04 10:21:40;;;;;;;1.63;0.30;;;;;;;;;;5093330;28;20425;-80
2023/08/04 10:24:07;;;;;;;0.87;0.20;;;;;;;;;;5092038;28;20411;-80
2023/08/04 10:26:34;;;;;;;1.10;0.20;;;;;;;;;;5093176;28;20410;-81
2023/08/04 10:29:06;;;;;;;1.00;0.30;;;;;;;;;;5093350;28;20539;-80
2023/08/04 10:31:45;;;;;;;1.43;0.50;;;;;;;;;;5093167;28;20515;-80
2023/08/04 10:34:31;;;;;;;1.20;0.20;;;;;;;;;;5092923;28;20414;-81
2023/08/04 10:37:12;;;;;;;2.13;0.33;;;;;;;;;;5093196;28;20426;-80
2023/08/04 10:39:45;;;;;;;1.07;0.57;;;;;;;;;;5093159;28;20536;-81
2023/08/04 10:42:31;;;;;;;2.00;0.40;;;;;;;;;;5092985;28;20398;-80
2023/08/04 10:44:57;;;;;;;2.23;0.70;;;;;;;;;;5093185;28;20773;-80
2023/08/04 10:47:29;;;;;;;1.63;0.30;;;;;;;;;;5093093;28;20398;-81
2023/08/04 10:49:55;;;;;;;1.17;0.30;;;;;;;;;;5092754;28;20184;-80
2023/08/04 10:52:21;;;;;;;1.60;0.20;;;;;;;;;;5097402;28;20949;-80
2023/08/04 10:54:47;;;;;;;0.70;0.20;;;;;;;;;;5093211;28;20414;-80
2023/08/04 10:57:21;;;;;;;1.70;0.20;;;;;;;;;;5093128;28;20184;-79
2023/08/04 10:59:47;;;;;;;1.40;0.77;;;;;;;;;;5092958;28;20481;-79
2023/08/04 11:02:16;;;;;;;0.90;0.40;;;;;;;;;;5092944;28;20544;-80
2023/08/04 11:04:42;;;;;;;1.37;0.20;;;;;;;;;;5092602;28;20498;-80
2023/08/04 11:07:07;;;;;;;1.63;0.53;;;;;;;;;;5092933;28;20455;-80
2023/08/04 11:09:33;;;;;;;0.80;0.50;;;;;;;;;;5092820;28;20410;-80
2023/08/04 11:11:59;;;;;;;1.53;0.40;;;;;;;;;;5092724;28;20215;-79
2023/08/04 11:14:25;;;;;;;1.63;0.30;;;;;;;;;;5092817;28;20639;-80
2023/08/04 11:16:52;;;;;;;2.37;0.40;;;;;;;;;;5092860;28;20414;-80
2023/08/04 11:19:21;;;;;;;0.90;0.40;;;;;;;;;;5092464;28;20406;-81
2023/08/04 11:21:47;;;;;;;1.33;0.30;;;;;;;;;;5094914;28;20426;-80
2023/08/04 11:24:13;;;;;;;1.03;0.20;;;;;;;;;;5096653;28;20770;-80
2023/08/04 11:26:38;;;;;;;0.97;0.20;;;;;;;;;;5096658;28;20176;-80
2023/08/04 11:29:05;;;;;;;1.53;0.47;;;;;;;;;;5096693;28;20177;-80
2023/08/04 11:31:33;;;;;;;1.20;0.27;;;;;;;;;;5096539;28;20491;-80
2023/08/04 11:33:58;;;;;;;1.00;0.20;;;;;;;;;;5096164;28;20421;-80
2023/08/04 11:36:24;;;;;;;1.43;0.20;;;;;;;;;;5096521;28;20814;-81
2023/08/04 11:38:50;;;;;;;1.90;0.30;;;;;;;;;;5096440;28;20221;-80
2023/08/04 11:41:16;;;;;;;1.00;0.20;;;;;;;;;;5096413;28;20294;-80
2023/08/04 11:43:42;;;;;;;1.80;0.63;;;;;;;;;;5096145;28;20468;-80
2023/08/04 11:46:08;;;;;;;1.37;0.57;;;;;;;;;;5096255;28;20411;-81
2023/08/04 11:48:35;;;;;;;2.83;0.50;;;;;;;;;;5095935;28;20879;-80
2023/08/04 11:51:02;;;;;;;2.80;0.20;;;;;;;;;;5096114;28;20406;-79
2023/08/04 11:53:28;;;;;;;1.73;0.63;;;;;;;;;;5096086;28;20429;-79
2023/08/04 11:55:58;;;;;;;1.03;0.20;;;;;;;;;;5096069;28;20936;-80
2023/08/04 11:58:30;;;;;;;1.70;0.20;;;;;;;;;;5096068;28;20417;-80
2023/08/04 12:00:56;;;;;;;1.27;0.30;;;;;;;;;;5096063;28;20433;-80
2023/08/04 12:03:22;;;;;;;1.80;0.30;;;;;;;;;;5095930;28;20463;-80
2023/08/04 12:05:48;;;;;;;3.30;0.83;;;;;;;;;;5095467;28;20902;-81
2023/08/04 12:08:14;;;;;;;2.20;0.43;;;;;;;;;;5095837;28;20172;-79
2023/08/04 12:10:41;;;;;;;0.70;0.20;;;;;;;;;;5095866;28;20169;-80
2023/08/04 12:13:07;;;;;;;2.83;0.93;;;;;;;;;;5095733;28;20465;-80
2023/08/04 12:15:51;;;;;;;1.47;0.33;;;;;;;;;;5095666;28;20459;-80
2023/08/04 12:18:28;;;;;;;1.13;0.30;;;;;;;;;;5095712;28;20207;-81
2023/08/04 12:20:53;;;;;;;1.80;0.20;;;;;;;;;;5094288;28;20429;-81
2023/08/04 12:23:19;;;;;;;1.83;0.60;;;;;;;;;;5094306;28;20926;-81
2023/08/04 12:25:45;;;;;;;2.83;0.50;;;;;;;;;;5095534;28;20171;-80
2023/08/04 12:28:11;;;;;;;2.50;0.50;;;;;;;;;;5094293;28;20176;-81
2023/08/04 12:30:38;;;;;;;1.23;0.30;;;;;;;;;;5095449;28;20168;-80
2023/08/04 12:33:03;;;;;;;2.90;0.30;;;;;;;;;;5094071;28;20977;-81
2023/08/04 12:35:29;;;;;;;2.10;0.57;;;;;;;;;;5094988;28;20495;-81
2023/08/04 12:37:55;;;;;;;5.20;1.20;;;;;;;;;;5095334;28;20173;-80
2023/08/04 12:40:21;;;;;;;1.47;0.40;;;;;;;;;;5095302;28;20413;-80
2023/08/04 12:42:47;;;;;;;1.60;0.30;;;;;;;;;;5095057;28;20212;-81
2023/08/04 12:45:13;;;;;;;2.47;0.20;;;;;;;;;;5095240;28;20199;-80
2023/08/04 12:47:39;;;;;;;1.13;0.20;;;;;;;;;;5095338;28;20226;-80
2023/08/04 12:50:05;;;;;;;2.53;0.50;;;;;;;;;;5094723;28;20173;-81
2023/08/04 12:52:31;;;;;;;1.90;0.30;;;;;;;;;;5094928;28;20566;-81
2023/08/04 12:54:57;;;;;;;1.00;0.30;;;;;;;;;;5095071;28;20452;-80
2023/08/04 12:57:23;;;;;;;1.73;0.30;;;;;;;;;;5094961;28;20169;-81
2023/08/04 12:59:49;;;;;;;1.13;0.77;;;;;;;;;;5094935;28;20636;-80
2023/08/04 13:02:15;;;;;;;4.13;0.83;;;;;;;;;;5094765;28;20176;-80
2023/08/04 13:04:41;;;;;;;2.30;0.80;;;;;;;;;;5094448;28;20172;-81
2023/08/04 13:07:07;;;;;;;1.30;0.33;;;;;;;;;;5094736;28;20536;-82
2023/08/04 13:09:33;;;;;;;1.50;0.50;;;;;;;;;;5094657;28;20617;-80
2023/08/04 13:11:58;;;;;;;3.60;0.77;;;;;;;;;;5094452;28;20693;-80
2023/08/04 13:14:24;;;;;;;2.30;0.50;;;;;;;;;;5094573;28;20172;-80
2023/08/04 13:16:50;;;;;;;2.87;1.00;;;;;;;;;;5094465;28;20204;-80
2023/08/04 13:19:16;;;;;;;2.37;0.60;;;;;;;;;;5092836;28;20643;-79
2023/08/04 13:21:42;;;;;;;3.63;0.50;;;;;;;;;;5094460;28;20180;-79
2023/08/04 13:24:09;;;;;;;2.20;0.40;;;;;;;;;;5093247;28;20241;-79
2023/08/04 13:26:34;;;;;;;3.03;0.40;;;;;;;;;;5093183;28;20999;-80
2023/08/04 13:29:00;;;;;;;2.60;0.40;;;;;;;;;;5094351;28;20517;-79
2023/08/04 13:31:26;;;;;;;2.40;0.60;;;;;;;;;;5077778;28;20351;-79
2023/08/04 13:33:52;;;;;;;1.70;0.40;;;;;;;;;;5091651;28;20555;-78
2023/08/04 13:36:18;;;;;;;2.20;0.90;;;;;;;;;;5084996;28;20184;-79
2023/08/04 13:38:44;;;;;;;3.13;0.63;;;;;;;;;;5086407;28;20190;-79
2023/08/04 13:41:10;;;;;;;3.50;1.00;;;;;;;;;;5093875;28;20535;-79
2023/08/04 13:43:36;;;;;;;1.33;0.60;;;;;;;;;;5077814;28;20917;-79
2023/08/04 13:46:02;;;;;;;1.47;0.50;;;;;;;;;;5091365;28;20625;-79
2023/08/04 13:48:28;;;;;;;2.57;0.50;;;;;;;;;;5084388;28;20476;-79
2023/08/04 13:50:54;;;;;;;1.20;0.33;;;;;;;;;;5082352;28;20177;-79
2023/08/04 13:53:20;;;;;;;3.30;0.60;;;;;;;;;;5087311;28;20556;-80
2023/08/04 13:55:46;;;;;;;1.87;0.40;;;;;;;;;;5088139;28;20172;-80
2023/08/04 13:58:12;;;;;;;4.63;0.57;;;;;;;;;;5092274;28;20218;-80
2023/08/04 14:00:38;;;;;;;3.27;0.40;;;;;;;;;;5094141;28;20259;-81
2023/08/04 14:03:04;;;;;;;4.20;0.70;;;;;;;;;;5093396;28;20169;-79
2023/08/04 14:05:30;;;;;;;3.00;0.40;;;;;;;;;;5093118;28;20384;-80
2023/08/04 14:07:56;;;;;;;2.50;0.47;;;;;;;;;;5093430;28;20534;-79
2023/08/04 14:10:22;;;;;;;2.07;0.67;;;;;;;;;;5093211;28;20463;-81
2023/08/04 14:12:58;;;;;;;3.60;0.30;;;;;;;;;;5093203;28;20230;-80
2023/08/04 14:15:25;;;;;;;2.00;0.60;;;;;;;;;;5093154;28;20492;-81
2023/08/04 14:17:50;;;;;;;1.37;0.20;;;;;;;;;;5092596;28;20508;-81
2023/08/04 14:20:20;;;;;;;1.30;0.63;;;;;;;;;;5075850;28;20934;-81
2023/08/04 14:22:45;;;;;;;1.30;0.30;;;;;;;;;;5071341;28;20184;-81
2023/08/04 14:25:20;;;;;;;3.40;0.33;;;;;;;;;;5072531;28;20880;-80
2023/08/04 14:27:50;;;;;;;2.90;0.37;;;;;;;;;;5072879;28;20164;-81
2023/08/04 14:30:15;;;;;;;3.40;0.43;;;;;;;;;;5072523;28;20902;-80
2023/08/04 14:32:41;;;;;;;3.43;0.73;;;;;;;;;;5072783;28;20562;-81
2023/08/04 14:35:08;;;;;;;3.70;0.43;;;;;;;;;;5072511;28;20173;-81
2023/08/04 14:37:36;;;;;;;2.73;0.50;;;;;;;;;;5077692;28;20428;-80
2023/08/04 14:40:02;;;;;;;3.57;0.93;;;;;;;;;;5092622;28;20892;-80